Terminal Aerodrome Forecast
Issued by NWS

Home | Current Version | Previous Version | Text Only | Print | Product List | Glossary On
Versions: 1 2 3 4 5 6 7 8 9 10 11 12 13 14 15 16 17 18 19 20 21 22 23 24 25 26 27 28 29 30
000
FTAK31 PANC 301139
TAFAGK
TAF
PAGK 301139Z 3012/3112 00000KT 3SM -SN SCT015 BKN025
      TEMPO 3012/3015 1 1/2SM -SN BKN015
     FM301800 34004KT P6SM SCT030 BKN045
     FM302100 35005KT P6SM SCT050 SCT100
     FM310800 VRB03KT P6SM VCFG SCT005=

USA.gov is the U.S. government's official web portal to all federal, state and local government web resources and services.